sensor_id;sensor_type;location;lat;lon;timestamp;temperature;humidity
29813;DHT22;16707;48.106;11.548;2023-08-24T00:02:13;21.40;99.90
29813;DHT22;16707;48.106;11.548;2023-08-24T00:04:40;21.50;99.90
29813;DHT22;16707;48.106;11.548;2023-08-24T00:07:08;21.50;99.90
29813;DHT22;16707;48.106;11.548;2023-08-24T00:09:35;21.40;99.90
29813;DHT22;16707;48.106;11.548;2023-08-24T00:12:02;21.40;99.90
29813;DHT22;16707;48.106;11.548;2023-08-24T00:14:30;21.30;99.90
29813;DHT22;16707;48.106;11.548;2023-08-24T00:16:58;21.20;99.90
29813;DHT22;16707;48.106;11.548;2023-08-24T00:19:24;21.10;99.90
29813;DHT22;16707;48.106;11.548;2023-08-24T00:21:51;21.00;99.90
29813;DHT22;16707;48.106;11.548;2023-08-24T00:24:18;21.00;99.90
29813;DHT22;16707;48.106;11.548;2023-08-24T00:26:45;20.90;99.90
29813;DHT22;16707;48.106;11.548;2023-08-24T00:29:12;20.90;99.90
29813;DHT22;16707;48.106;11.548;2023-08-24T00:31:41;20.80;99.90
29813;DHT22;16707;48.106;11.548;2023-08-24T00:34:07;20.80;99.90
29813;DHT22;16707;48.106;11.548;2023-08-24T00:36:34;20.70;99.90
29813;DHT22;16707;48.106;11.548;2023-08-24T00:39:01;20.70;99.90
29813;DHT22;16707;48.106;11.548;2023-08-24T00:41:29;20.70;99.90
29813;DHT22;16707;48.106;11.548;2023-08-24T00:43:56;20.60;99.90
29813;DHT22;16707;48.106;11.548;2023-08-24T00:46:23;20.50;99.90
29813;DHT22;16707;48.106;11.548;2023-08-24T00:48:53;20.50;99.90
29813;DHT22;16707;48.106;11.548;2023-08-24T00:51:22;20.40;99.90
29813;DHT22;16707;48.106;11.548;2023-08-24T00:53:50;20.40;99.90
29813;DHT22;16707;48.106;11.548;2023-08-24T00:56:17;20.40;99.90
29813;DHT22;16707;48.106;11.548;2023-08-24T00:58:47;20.30;99.90
29813;DHT22;16707;48.106;11.548;2023-08-24T01:01:14;20.30;99.90
29813;DHT22;16707;48.106;11.548;2023-08-24T01:03:41;20.30;99.90
29813;DHT22;16707;48.106;11.548;2023-08-24T01:06:09;20.30;99.90
29813;DHT22;16707;48.106;11.548;2023-08-24T01:08:36;20.30;99.90
29813;DHT22;16707;48.106;11.548;2023-08-24T01:11:11;20.20;99.90
29813;DHT22;16707;48.106;11.548;2023-08-24T01:13:51;20.20;99.90
29813;DHT22;16707;48.106;11.548;2023-08-24T01:16:26;20.10;99.90
29813;DHT22;16707;48.106;11.548;2023-08-24T01:18:56;20.10;99.90
29813;DHT22;16707;48.106;11.548;2023-08-24T01:21:26;20.00;99.90
29813;DHT22;16707;48.106;11.548;2023-08-24T01:23:59;20.00;99.90
29813;DHT22;16707;48.106;11.548;2023-08-24T01:26:30;19.90;99.90
29813;DHT22;16707;48.106;11.548;2023-08-24T01:28:58;20.00;99.90
29813;DHT22;16707;48.106;11.548;2023-08-24T01:31:25;19.90;99.90
29813;DHT22;16707;48.106;11.548;2023-08-24T01:33:52;19.90;99.90
29813;DHT22;16707;48.106;11.548;2023-08-24T01:36:19;19.90;99.90
29813;DHT22;16707;48.106;11.548;2023-08-24T01:38:56;19.80;99.90
29813;DHT22;16707;48.106;11.548;2023-08-24T01:41:30;19.80;99.90
29813;DHT22;16707;48.106;11.548;2023-08-24T01:44:02;19.80;99.90
29813;DHT22;16707;48.106;11.548;2023-08-24T01:46:31;19.80;99.90
29813;DHT22;16707;48.106;11.548;2023-08-24T01:49:00;19.80;99.90
29813;DHT22;16707;48.106;11.548;2023-08-24T01:51:27;19.70;99.90
29813;DHT22;16707;48.106;11.548;2023-08-24T01:53:55;19.70;99.90
29813;DHT22;16707;48.106;11.548;2023-08-24T01:56:24;19.70;99.90
29813;DHT22;16707;48.106;11.548;2023-08-24T01:58:53;19.60;99.90
29813;DHT22;16707;48.106;11.548;2023-08-24T02:01:20;19.70;99.90
29813;DHT22;16707;48.106;11.548;2023-08-24T02:03:46;19.60;99.90
29813;DHT22;16707;48.106;11.548;2023-08-24T02:06:13;19.60;99.90
29813;DHT22;16707;48.106;11.548;2023-08-24T02:08:40;19.60;99.90
29813;DHT22;16707;48.106;11.548;2023-08-24T02:11:08;19.60;99.90
29813;DHT22;16707;48.106;11.548;2023-08-24T02:13:35;19.60;99.90
29813;DHT22;16707;48.106;11.548;2023-08-24T02:16:04;19.50;99.90
29813;DHT22;16707;48.106;11.548;2023-08-24T02:18:33;19.50;99.90
29813;DHT22;16707;48.106;11.548;2023-08-24T02:21:00;19.50;99.90
29813;DHT22;16707;48.106;11.548;2023-08-24T02:23:27;19.40;99.90
29813;DHT22;16707;48.106;11.548;2023-08-24T02:25:56;19.40;99.90
29813;DHT22;16707;48.106;11.548;2023-08-24T02:28:23;19.40;99.90
29813;DHT22;16707;48.106;11.548;2023-08-24T02:30:50;19.40;99.90
29813;DHT22;16707;48.106;11.548;2023-08-24T02:33:18;19.30;99.90
29813;DHT22;16707;48.106;11.548;2023-08-24T02:35:47;19.30;99.90
29813;DHT22;16707;48.106;11.548;2023-08-24T02:38:14;19.30;99.90
29813;DHT22;16707;48.106;11.548;2023-08-24T02:40:41;19.30;99.90
29813;DHT22;16707;48.106;11.548;2023-08-24T02:43:08;19.30;99.90
29813;DHT22;16707;48.106;11.548;2023-08-24T02:45:35;19.20;99.90
29813;DHT22;16707;48.106;11.548;2023-08-24T02:48:02;19.20;99.90
29813;DHT22;16707;48.106;11.548;2023-08-24T02:50:31;19.20;99.90
29813;DHT22;16707;48.106;11.548;2023-08-24T02:52:58;19.20;99.90
29813;DHT22;16707;48.106;11.548;2023-08-24T02:55:27;19.20;99.90
29813;DHT22;16707;48.106;11.548;2023-08-24T02:57:54;19.20;99.90
29813;DHT22;16707;48.106;11.548;2023-08-24T03:00:21;19.10;99.90
29813;DHT22;16707;48.106;11.548;2023-08-24T03:02:48;19.20;99.90
29813;DHT22;16707;48.106;11.548;2023-08-24T03:05:15;19.10;99.90
29813;DHT22;16707;48.106;11.548;2023-08-24T03:07:43;19.20;99.90
29813;DHT22;16707;48.106;11.548;2023-08-24T03:10:10;19.20;99.90
29813;DHT22;16707;48.106;11.548;2023-08-24T03:12:37;19.10;99.90
29813;DHT22;16707;48.106;11.548;2023-08-24T03:15:05;19.10;99.90
29813;DHT22;16707;48.106;11.548;2023-08-24T03:17:32;19.10;99.90
29813;DHT22;16707;48.106;11.548;2023-08-24T03:19:59;19.00;99.90
29813;DHT22;16707;48.106;11.548;2023-08-24T03:22:26;19.00;99.90
29813;DHT22;16707;48.106;11.548;2023-08-24T03:24:55;19.00;99.90
29813;DHT22;16707;48.106;11.548;2023-08-24T03:27:22;19.00;99.90
29813;DHT22;16707;48.106;11.548;2023-08-24T03:29:49;18.90;99.90
29813;DHT22;16707;48.106;11.548;2023-08-24T03:32:16;18.90;99.90
29813;DHT22;16707;48.106;11.548;2023-08-24T03:34:43;18.90;99.90
29813;DHT22;16707;48.106;11.548;2023-08-24T03:37:10;18.90;99.90
29813;DHT22;16707;48.106;11.548;2023-08-24T03:39:40;18.90;99.90
29813;DHT22;16707;48.106;11.548;2023-08-24T03:42:09;18.90;99.90
29813;DHT22;16707;48.106;11.548;2023-08-24T03:44:36;18.80;99.90
29813;DHT22;16707;48.106;11.548;2023-08-24T03:47:03;18.80;99.90
29813;DHT22;16707;48.106;11.548;2023-08-24T03:49:30;18.80;99.90
29813;DHT22;16707;48.106;11.548;2023-08-24T03:51:57;18.80;99.90
29813;DHT22;16707;48.106;11.548;2023-08-24T03:54:24;18.80;99.90
29813;DHT22;16707;48.106;11.548;2023-08-24T03:56:51;18.80;99.90
29813;DHT22;16707;48.106;11.548;2023-08-24T03:59:20;18.70;99.90
29813;DHT22;16707;48.106;11.548;2023-08-24T04:01:47;18.80;99.90
29813;DHT22;16707;48.106;11.548;2023-08-24T04:04:14;18.70;99.90
29813;DHT22;16707;48.106;11.548;2023-08-24T04:06:41;18.70;99.90
29813;DHT22;16707;48.106;11.548;2023-08-24T04:09:09;18.70;99.90
29813;DHT22;16707;48.106;11.548;2023-08-24T04:11:36;18.60;99.90
29813;DHT22;16707;48.106;11.548;2023-08-24T04:14:03;18.60;99.90
29813;DHT22;16707;48.106;11.548;2023-08-24T04:16:31;18.70;99.90
29813;DHT22;16707;48.106;11.548;2023-08-24T04:18:58;18.60;99.90
29813;DHT22;16707;48.106;11.548;2023-08-24T04:21:25;18.60;99.90
29813;DHT22;16707;48.106;11.548;2023-08-24T04:23:52;18.60;99.90
29813;DHT22;16707;48.106;11.548;2023-08-24T04:26:19;18.70;99.90
29813;DHT22;16707;48.106;11.548;2023-08-24T04:28:46;18.80;99.90
29813;DHT22;16707;48.106;11.548;2023-08-24T04:31:13;18.80;99.90
29813;DHT22;16707;48.106;11.548;2023-08-24T04:33:42;18.80;99.90
29813;DHT22;16707;48.106;11.548;2023-08-24T04:36:09;18.90;99.90
29813;DHT22;16707;48.106;11.548;2023-08-24T04:38:36;18.90;99.90
29813;DHT22;16707;48.106;11.548;2023-08-24T04:41:03;19.00;99.90
29813;DHT22;16707;48.106;11.548;2023-08-24T04:43:32;19.10;99.90
29813;DHT22;16707;48.106;11.548;2023-08-24T04:46:00;19.20;99.90
29813;DHT22;16707;48.106;11.548;2023-08-24T04:48:27;19.30;99.90
29813;DHT22;16707;48.106;11.548;2023-08-24T04:50:59;19.30;99.90
29813;DHT22;16707;48.106;11.548;2023-08-24T04:53:26;19.50;99.90
29813;DHT22;16707;48.106;11.548;2023-08-24T04:55:53;19.60;99.90
29813;DHT22;16707;48.106;11.548;2023-08-24T04:58:20;19.80;99.90
29813;DHT22;16707;48.106;11.548;2023-08-24T05:00:48;20.00;99.90
29813;DHT22;16707;48.106;11.548;2023-08-24T05:03:16;20.20;99.90
29813;DHT22;16707;48.106;11.548;2023-08-24T05:05:43;20.40;99.90
29813;DHT22;16707;48.106;11.548;2023-08-24T05:08:12;20.60;99.90
29813;DHT22;16707;48.106;11.548;2023-08-24T05:10:40;20.80;99.90
29813;DHT22;16707;48.106;11.548;2023-08-24T05:13:07;21.00;99.90
29813;DHT22;16707;48.106;11.548;2023-08-24T05:15:34;21.30;99.90
29813;DHT22;16707;48.106;11.548;2023-08-24T05:18:01;21.90;99.90
29813;DHT22;16707;48.106;11.548;2023-08-24T05:20:28;22.90;99.90
29813;DHT22;16707;48.106;11.548;2023-08-24T05:22:55;24.10;99.90
29813;DHT22;16707;48.106;11.548;2023-08-24T05:25:24;25.20;99.90
29813;DHT22;16707;48.106;11.548;2023-08-24T05:27:51;26.20;99.90
29813;DHT22;16707;48.106;11.548;2023-08-24T05:30:18;27.40;99.90
29813;DHT22;16707;48.106;11.548;2023-08-24T05:32:46;28.10;99.90
29813;DHT22;16707;48.106;11.548;2023-08-24T05:35:13;29.00;99.30
29813;DHT22;16707;48.106;11.548;2023-08-24T05:37:40;28.90;97.30
29813;DHT22;16707;48.106;11.548;2023-08-24T05:40:08;29.40;96.20
29813;DHT22;16707;48.106;11.548;2023-08-24T05:42:37;30.60;93.20
29813;DHT22;16707;48.106;11.548;2023-08-24T05:45:05;30.40;91.60
29813;DHT22;16707;48.106;11.548;2023-08-24T05:47:33;30.80;91.80
29813;DHT22;16707;48.106;11.548;2023-08-24T05:50:00;32.00;87.20
29813;DHT22;16707;48.106;11.548;2023-08-24T05:52:27;31.20;85.20
29813;DHT22;16707;48.106;11.548;2023-08-24T05:54:54;30.20;89.00
29813;DHT22;16707;48.106;11.548;2023-08-24T05:57:21;29.80;91.10
29813;DHT22;16707;48.106;11.548;2023-08-24T05:59:50;31.00;89.60
29813;DHT22;16707;48.106;11.548;2023-08-24T06:02:17;31.80;84.40
29813;DHT22;16707;48.106;11.548;2023-08-24T06:04:44;32.60;81.80
29813;DHT22;16707;48.106;11.548;2023-08-24T06:07:11;33.20;75.70
29813;DHT22;16707;48.106;11.548;2023-08-24T06:09:38;34.20;72.50
29813;DHT22;16707;48.106;11.548;2023-08-24T06:12:06;35.50;66.60
29813;DHT22;16707;48.106;11.548;2023-08-24T06:14:33;36.50;63.40
29813;DHT22;16707;48.106;11.548;2023-08-24T06:17:02;37.30;58.90
29813;DHT22;16707;48.106;11.548;2023-08-24T06:19:29;37.10;58.00
29813;DHT22;16707;48.106;11.548;2023-08-24T06:21:56;36.80;57.90
29813;DHT22;16707;48.106;11.548;2023-08-24T06:24:23;36.30;59.40
29813;DHT22;16707;48.106;11.548;2023-08-24T06:26:50;36.80;58.10
29813;DHT22;16707;48.106;11.548;2023-08-24T06:29:17;37.40;57.10
29813;DHT22;16707;48.106;11.548;2023-08-24T06:31:44;37.10;55.90
29813;DHT22;16707;48.106;11.548;2023-08-24T06:34:13;37.20;56.70
29813;DHT22;16707;48.106;11.548;2023-08-24T06:36:40;38.00;55.30
29813;DHT22;16707;48.106;11.548;2023-08-24T06:39:07;39.80;52.30
29813;DHT22;16707;48.106;11.548;2023-08-24T06:41:35;37.90;53.40
29813;DHT22;16707;48.106;11.548;2023-08-24T06:44:02;37.80;54.10
29813;DHT22;16707;48.106;11.548;2023-08-24T06:46:30;37.10;54.00
29813;DHT22;16707;48.106;11.548;2023-08-24T06:48:57;36.70;54.10
29813;DHT22;16707;48.106;11.548;2023-08-24T06:51:26;34.90;56.20
29813;DHT22;16707;48.106;11.548;2023-08-24T06:53:54;33.60;61.00
29813;DHT22;16707;48.106;11.548;2023-08-24T06:56:21;32.90;65.70
29813;DHT22;16707;48.106;11.548;2023-08-24T06:58:48;32.30;69.80
29813;DHT22;16707;48.106;11.548;2023-08-24T07:01:15;31.70;72.30
29813;DHT22;16707;48.106;11.548;2023-08-24T07:03:42;31.10;75.80
29813;DHT22;16707;48.106;11.548;2023-08-24T07:06:09;30.50;79.40
29813;DHT22;16707;48.106;11.548;2023-08-24T07:08:39;30.50;79.90
29813;DHT22;16707;48.106;11.548;2023-08-24T07:11:06;30.50;79.70
29813;DHT22;16707;48.106;11.548;2023-08-24T07:13:33;30.20;81.30
29813;DHT22;16707;48.106;11.548;2023-08-24T07:16:00;29.80;84.10
29813;DHT22;16707;48.106;11.548;2023-08-24T07:18:28;29.50;85.90
29813;DHT22;16707;48.106;11.548;2023-08-24T07:20:55;29.30;88.10
29813;DHT22;16707;48.106;11.548;2023-08-24T07:23:22;28.90;89.60
29813;DHT22;16707;48.106;11.548;2023-08-24T07:25:51;29.00;90.70
29813;DHT22;16707;48.106;11.548;2023-08-24T07:28:18;28.70;90.80
29813;DHT22;16707;48.106;11.548;2023-08-24T07:30:45;28.60;91.50
29813;DHT22;16707;48.106;11.548;2023-08-24T07:33:12;28.60;91.50
29813;DHT22;16707;48.106;11.548;2023-08-24T07:35:39;28.30;92.20
29813;DHT22;16707;48.106;11.548;2023-08-24T07:38:06;28.30;92.00
29813;DHT22;16707;48.106;11.548;2023-08-24T07:40:33;28.20;92.40
29813;DHT22;16707;48.106;11.548;2023-08-24T07:43:02;28.30;92.60
29813;DHT22;16707;48.106;11.548;2023-08-24T07:45:29;28.40;92.90
29813;DHT22;16707;48.106;11.548;2023-08-24T07:47:56;28.40;92.70
29813;DHT22;16707;48.106;11.548;2023-08-24T07:50:23;28.30;93.10
29813;DHT22;16707;48.106;11.548;2023-08-24T07:52:50;28.20;93.50
29813;DHT22;16707;48.106;11.548;2023-08-24T07:55:17;28.30;93.40
29813;DHT22;16707;48.106;11.548;2023-08-24T07:57:44;28.20;93.90
29813;DHT22;16707;48.106;11.548;2023-08-24T08:00:15;28.20;93.80
29813;DHT22;16707;48.106;11.548;2023-08-24T08:02:42;28.50;93.70
29813;DHT22;16707;48.106;11.548;2023-08-24T08:05:09;28.50;92.80
29813;DHT22;16707;48.106;11.548;2023-08-24T08:07:38;28.60;92.60
29813;DHT22;16707;48.106;11.548;2023-08-24T08:10:06;28.50;92.60
29813;DHT22;16707;48.106;11.548;2023-08-24T08:12:33;28.40;92.70
29813;DHT22;16707;48.106;11.548;2023-08-24T08:15:00;28.30;93.10
29813;DHT22;16707;48.106;11.548;2023-08-24T08:17:28;28.30;93.40
29813;DHT22;16707;48.106;11.548;2023-08-24T08:19:56;28.20;93.80
29813;DHT22;16707;48.106;11.548;2023-08-24T08:22:23;28.40;93.60
29813;DHT22;16707;48.106;11.548;2023-08-24T08:24:50;28.50;93.20
29813;DHT22;16707;48.106;11.548;2023-08-24T08:27:19;28.50;93.10
29813;DHT22;16707;48.106;11.548;2023-08-24T08:29:47;28.70;92.80
29813;DHT22;16707;48.106;11.548;2023-08-24T08:32:13;28.70;92.70
29813;DHT22;16707;48.106;11.548;2023-08-24T08:34:42;28.70;92.50
29813;DHT22;16707;48.106;11.548;2023-08-24T08:37:09;28.80;92.80
29813;DHT22;16707;48.106;11.548;2023-08-24T08:39:36;28.80;92.70
29813;DHT22;16707;48.106;11.548;2023-08-24T08:42:03;29.00;92.60
29813;DHT22;16707;48.106;11.548;2023-08-24T08:44:30;29.20;91.80
29813;DHT22;16707;48.106;11.548;2023-08-24T08:46:58;29.40;91.20
29813;DHT22;16707;48.106;11.548;2023-08-24T08:49:25;29.30;90.70
29813;DHT22;16707;48.106;11.548;2023-08-24T08:51:54;29.10;91.20
29813;DHT22;16707;48.106;11.548;2023-08-24T08:54:21;29.00;91.70
29813;DHT22;16707;48.106;11.548;2023-08-24T08:56:48;29.00;90.90
29813;DHT22;16707;48.106;11.548;2023-08-24T08:59:16;29.30;90.40
29813;DHT22;16707;48.106;11.548;2023-08-24T09:01:45;29.50;90.20
29813;DHT22;16707;48.106;11.548;2023-08-24T09:04:13;29.70;88.80
29813;DHT22;16707;48.106;11.548;2023-08-24T09:06:40;29.90;87.70
29813;DHT22;16707;48.106;11.548;2023-08-24T09:09:09;30.10;87.50
29813;DHT22;16707;48.106;11.548;2023-08-24T09:11:36;30.20;87.90
29813;DHT22;16707;48.106;11.548;2023-08-24T09:14:04;29.90;89.40
29813;DHT22;16707;48.106;11.548;2023-08-24T09:16:32;29.70;89.20
29813;DHT22;16707;48.106;11.548;2023-08-24T09:19:05;29.80;89.30
29813;DHT22;16707;48.106;11.548;2023-08-24T09:21:36;29.80;90.20
29813;DHT22;16707;48.106;11.548;2023-08-24T09:24:04;29.80;90.10
29813;DHT22;16707;48.106;11.548;2023-08-24T09:26:35;30.00;88.30
29813;DHT22;16707;48.106;11.548;2023-08-24T09:29:11;30.20;86.80
29813;DHT22;16707;48.106;11.548;2023-08-24T09:31:39;30.20;85.80
29813;DHT22;16707;48.106;11.548;2023-08-24T09:34:09;30.10;85.30
29813;DHT22;16707;48.106;11.548;2023-08-24T09:36:38;30.60;85.60
29813;DHT22;16707;48.106;11.548;2023-08-24T09:39:05;31.00;82.20
29813;DHT22;16707;48.106;11.548;2023-08-24T09:41:40;31.40;80.30
29813;DHT22;16707;48.106;11.548;2023-08-24T09:44:08;32.00;78.50
29813;DHT22;16707;48.106;11.548;2023-08-24T09:46:36;32.50;74.70
29813;DHT22;16707;48.106;11.548;2023-08-24T09:49:05;32.70;73.30
29813;DHT22;16707;48.106;11.548;2023-08-24T09:51:33;32.90;71.90
29813;DHT22;16707;48.106;11.548;2023-08-24T09:54:04;33.00;71.00
29813;DHT22;16707;48.106;11.548;2023-08-24T09:56:35;32.90;71.40
29813;DHT22;16707;48.106;11.548;2023-08-24T09:59:11;33.20;70.40
29813;DHT22;16707;48.106;11.548;2023-08-24T10:01:42;33.00;70.50
29813;DHT22;16707;48.106;11.548;2023-08-24T10:04:10;32.80;71.10
29813;DHT22;16707;48.106;11.548;2023-08-24T10:06:39;32.40;72.20
29813;DHT22;16707;48.106;11.548;2023-08-24T10:09:08;32.40;72.30
29813;DHT22;16707;48.106;11.548;2023-08-24T10:11:45;32.50;71.50
29813;DHT22;16707;48.106;11.548;2023-08-24T10:14:24;32.20;72.90
29813;DHT22;16707;48.106;11.548;2023-08-24T10:16:55;32.00;72.90
29813;DHT22;16707;48.106;11.548;2023-08-24T10:19:23;31.70;74.60
29813;DHT22;16707;48.106;11.548;2023-08-24T10:21:51;31.80;74.10
29813;DHT22;16707;48.106;11.548;2023-08-24T10:24:23;31.70;74.10
29813;DHT22;16707;48.106;11.548;2023-08-24T10:26:51;31.60;74.70
29813;DHT22;16707;48.106;11.548;2023-08-24T10:29:21;31.80;74.20
29813;DHT22;16707;48.106;11.548;2023-08-24T10:31:48;31.80;74.20
29813;DHT22;16707;48.106;11.548;2023-08-24T10:34:16;31.80;70.10
29813;DHT22;16707;48.106;11.548;2023-08-24T10:36:43;31.90;71.40
29813;DHT22;16707;48.106;11.548;2023-08-24T10:39:14;31.80;71.60
29813;DHT22;16707;48.106;11.548;2023-08-24T10:41:48;31.80;70.80
29813;DHT22;16707;48.106;11.548;2023-08-24T10:44:34;31.80;71.40
29813;DHT22;16707;48.106;11.548;2023-08-24T10:47:11;31.70;68.90
29813;DHT22;16707;48.106;11.548;2023-08-24T10:49:38;31.90;70.40
29813;DHT22;16707;48.106;11.548;2023-08-24T10:52:19;31.80;68.80
29813;DHT22;16707;48.106;11.548;2023-08-24T10:54:47;31.70;69.60
29813;DHT22;16707;48.106;11.548;2023-08-24T10:57:22;31.80;69.90
29813;DHT22;16707;48.106;11.548;2023-08-24T11:00:04;31.80;67.40
29813;DHT22;16707;48.106;11.548;2023-08-24T11:02:42;31.80;64.70
29813;DHT22;16707;48.106;11.548;2023-08-24T11:05:17;32.00;62.30
29813;DHT22;16707;48.106;11.548;2023-08-24T11:07:53;32.20;64.00
29813;DHT22;16707;48.106;11.548;2023-08-24T11:10:22;32.20;65.10
29813;DHT22;16707;48.106;11.548;2023-08-24T11:13:09;32.30;64.30
29813;DHT22;16707;48.106;11.548;2023-08-24T11:15:40;32.40;62.20
29813;DHT22;16707;48.106;11.548;2023-08-24T11:18:21;32.50;60.00
29813;DHT22;16707;48.106;11.548;2023-08-24T11:20:52;32.50;58.10
29813;DHT22;16707;48.106;11.548;2023-08-24T11:23:20;32.50;57.30
29813;DHT22;16707;48.106;11.548;2023-08-24T11:25:49;32.60;59.60
29813;DHT22;16707;48.106;11.548;2023-08-24T11:28:20;32.70;58.40
29813;DHT22;16707;48.106;11.548;2023-08-24T11:30:49;32.90;58.80
29813;DHT22;16707;48.106;11.548;2023-08-24T11:33:27;33.00;61.70
29813;DHT22;16707;48.106;11.548;2023-08-24T11:35:56;33.00;62.40
29813;DHT22;16707;48.106;11.548;2023-08-24T11:38:23;33.00;59.40
29813;DHT22;16707;48.106;11.548;2023-08-24T11:40:50;32.80;58.60
29813;DHT22;16707;48.106;11.548;2023-08-24T11:43:23;32.60;59.90
29813;DHT22;16707;48.106;11.548;2023-08-24T11:45:53;32.70;60.50
29813;DHT22;16707;48.106;11.548;2023-08-24T11:48:24;32.90;58.60
29813;DHT22;16707;48.106;11.548;2023-08-24T11:50:52;33.10;57.40
29813;DHT22;16707;48.106;11.548;2023-08-24T11:53:20;33.20;58.00
29813;DHT22;16707;48.106;11.548;2023-08-24T11:55:47;33.40;58.90
29813;DHT22;16707;48.106;11.548;2023-08-24T11:58:14;33.40;58.70
29813;DHT22;16707;48.106;11.548;2023-08-24T12:00:42;33.40;58.70
29813;DHT22;16707;48.106;11.548;2023-08-24T12:03:11;33.70;57.20
29813;DHT22;16707;48.106;11.548;2023-08-24T12:05:38;33.70;52.10
29813;DHT22;16707;48.106;11.548;2023-08-24T12:08:06;33.70;50.40
29813;DHT22;16707;48.106;11.548;2023-08-24T12:10:33;33.80;52.80
29813;DHT22;16707;48.106;11.548;2023-08-24T12:13:03;33.80;53.80
29813;DHT22;16707;48.106;11.548;2023-08-24T12:15:34;33.50;52.70
29813;DHT22;16707;48.106;11.548;2023-08-24T12:18:07;33.40;54.50
29813;DHT22;16707;48.106;11.548;2023-08-24T12:20:37;33.50;51.00
29813;DHT22;16707;48.106;11.548;2023-08-24T12:23:04;33.60;52.20
29813;DHT22;16707;48.106;11.548;2023-08-24T12:25:36;33.70;51.80
29813;DHT22;16707;48.106;11.548;2023-08-24T12:28:10;33.80;51.70
29813;DHT22;16707;48.106;11.548;2023-08-24T12:30:48;33.90;51.90
29813;DHT22;16707;48.106;11.548;2023-08-24T12:33:23;33.90;52.70
29813;DHT22;16707;48.106;11.548;2023-08-24T12:35:53;34.00;51.60
29813;DHT22;16707;48.106;11.548;2023-08-24T12:38:21;34.10;51.30
29813;DHT22;16707;48.106;11.548;2023-08-24T12:40:48;34.30;49.70
29813;DHT22;16707;48.106;11.548;2023-08-24T12:43:15;34.40;48.10
29813;DHT22;16707;48.106;11.548;2023-08-24T12:45:42;34.10;47.80
29813;DHT22;16707;48.106;11.548;2023-08-24T12:48:10;34.20;47.90
29813;DHT22;16707;48.106;11.548;2023-08-24T12:50:38;34.30;48.50
29813;DHT22;16707;48.106;11.548;2023-08-24T12:53:06;34.10;49.60
29813;DHT22;16707;48.106;11.548;2023-08-24T12:55:35;34.00;50.60
29813;DHT22;16707;48.106;11.548;2023-08-24T12:58:05;33.80;51.30
29813;DHT22;16707;48.106;11.548;2023-08-24T13:00:32;34.00;51.50
29813;DHT22;16707;48.106;11.548;2023-08-24T13:02:59;34.30;50.90
29813;DHT22;16707;48.106;11.548;2023-08-24T13:05:26;34.50;48.90
29813;DHT22;16707;48.106;11.548;2023-08-24T13:07:53;34.80;49.60
29813;DHT22;16707;48.106;11.548;2023-08-24T13:10:22;34.80;49.20
29813;DHT22;16707;48.106;11.548;2023-08-24T13:12:49;34.70;48.40
29813;DHT22;16707;48.106;11.548;2023-08-24T13:15:16;34.70;48.90
29813;DHT22;16707;48.106;11.548;2023-08-24T13:17:43;34.80;48.60
29813;DHT22;16707;48.106;11.548;2023-08-24T13:20:10;34.80;50.50
29813;DHT22;16707;48.106;11.548;2023-08-24T13:22:37;34.80;49.60
29813;DHT22;16707;48.106;11.548;2023-08-24T13:25:05;34.90;46.80
29813;DHT22;16707;48.106;11.548;2023-08-24T13:27:34;34.90;45.40
29813;DHT22;16707;48.106;11.548;2023-08-24T13:30:01;35.10;46.20
29813;DHT22;16707;48.106;11.548;2023-08-24T13:32:29;35.10;46.50
29813;DHT22;16707;48.106;11.548;2023-08-24T13:34:56;35.20;46.70
29813;DHT22;16707;48.106;11.548;2023-08-24T13:37:23;35.20;45.70
29813;DHT22;16707;48.106;11.548;2023-08-24T13:39:51;35.30;47.00
29813;DHT22;16707;48.106;11.548;2023-08-24T13:42:18;35.30;47.10
29813;DHT22;16707;48.106;11.548;2023-08-24T13:44:47;35.40;48.30
29813;DHT22;16707;48.106;11.548;2023-08-24T13:47:14;35.40;48.30
29813;DHT22;16707;48.106;11.548;2023-08-24T13:49:41;35.20;49.60
29813;DHT22;16707;48.106;11.548;2023-08-24T13:52:08;35.30;47.50
29813;DHT22;16707;48.106;11.548;2023-08-24T13:54:35;35.20;47.10
29813;DHT22;16707;48.106;11.548;2023-08-24T13:57:02;35.10;47.90
29813;DHT22;16707;48.106;11.548;2023-08-24T13:59:29;35.10;48.50
29813;DHT22;16707;48.106;11.548;2023-08-24T14:01:57;35.30;48.10
29813;DHT22;16707;48.106;11.548;2023-08-24T14:04:24;35.20;47.30
29813;DHT22;16707;48.106;11.548;2023-08-24T14:06:51;35.20;47.50
29813;DHT22;16707;48.106;11.548;2023-08-24T14:09:18;35.10;48.40
29813;DHT22;16707;48.106;11.548;2023-08-24T14:11:45;35.20;49.00
29813;DHT22;16707;48.106;11.548;2023-08-24T14:14:13;35.20;48.30
29813;DHT22;16707;48.106;11.548;2023-08-24T14:16:40;35.10;48.60
29813;DHT22;16707;48.106;11.548;2023-08-24T14:19:08;35.00;49.60
29813;DHT22;16707;48.106;11.548;2023-08-24T14:21:35;35.10;50.40
29813;DHT22;16707;48.106;11.548;2023-08-24T14:24:02;35.10;49.60
29813;DHT22;16707;48.106;11.548;2023-08-24T14:26:30;35.00;49.70
29813;DHT22;16707;48.106;11.548;2023-08-24T14:28:57;34.80;50.00
29813;DHT22;16707;48.106;11.548;2023-08-24T14:31:26;34.70;50.20
29813;DHT22;16707;48.106;11.548;2023-08-24T14:33:54;34.40;50.40
29813;DHT22;16707;48.106;11.548;2023-08-24T14:36:24;34.30;51.50
29813;DHT22;16707;48.106;11.548;2023-08-24T14:38:51;34.30;51.40
29813;DHT22;16707;48.106;11.548;2023-08-24T14:41:18;34.30;50.30
29813;DHT22;16707;48.106;11.548;2023-08-24T14:43:46;34.40;51.10
29813;DHT22;16707;48.106;11.548;2023-08-24T14:46:13;34.50;52.00
29813;DHT22;16707;48.106;11.548;2023-08-24T14:48:40;34.40;52.00
29813;DHT22;16707;48.106;11.548;2023-08-24T14:51:07;34.40;52.10
29813;DHT22;16707;48.106;11.548;2023-08-24T14:53:36;34.60;51.30
29813;DHT22;16707;48.106;11.548;2023-08-24T14:56:03;34.70;51.40
29813;DHT22;16707;48.106;11.548;2023-08-24T14:58:30;34.80;51.80
29813;DHT22;16707;48.106;11.548;2023-08-24T15:00:57;34.70;51.60
29813;DHT22;16707;48.106;11.548;2023-08-24T15:03:24;34.60;51.80
29813;DHT22;16707;48.106;11.548;2023-08-24T15:05:58;34.40;52.90
29813;DHT22;16707;48.106;11.548;2023-08-24T15:08:28;34.30;53.60
29813;DHT22;16707;48.106;11.548;2023-08-24T15:10:57;34.20;48.00
29813;DHT22;16707;48.106;11.548;2023-08-24T15:13:25;34.30;45.50
29813;DHT22;16707;48.106;11.548;2023-08-24T15:15:54;34.50;45.30
29813;DHT22;16707;48.106;11.548;2023-08-24T15:18:22;34.40;48.40
29813;DHT22;16707;48.106;11.548;2023-08-24T15:20:49;34.60;48.30
29813;DHT22;16707;48.106;11.548;2023-08-24T15:23:23;34.70;49.10